sensor_id;sensor_type;location;lat;lon;timestamp;temperature;humidity
47765;DHT22;33529;49.242;8.670;2023-11-19T00:00:08;8.90;99.90
47765;DHT22;33529;49.242;8.670;2023-11-19T00:02:41;9.00;99.90
47765;DHT22;33529;49.242;8.670;2023-11-19T00:05:10;9.00;99.90
47765;DHT22;33529;49.242;8.670;2023-11-19T00:07:39;9.10;99.90
47765;DHT22;33529;49.242;8.670;2023-11-19T00:10:16;9.10;99.90
47765;DHT22;33529;49.242;8.670;2023-11-19T00:12:47;9.10;99.90
47765;DHT22;33529;49.242;8.670;2023-11-19T00:15:15;9.10;99.90
47765;DHT22;33529;49.242;8.670;2023-11-19T00:17:44;9.10;99.90
47765;DHT22;33529;49.242;8.670;2023-11-19T00:20:15;9.20;99.90
47765;DHT22;33529;49.242;8.670;2023-11-19T00:22:44;9.20;99.90
47765;DHT22;33529;49.242;8.670;2023-11-19T00:25:17;9.20;99.90
47765;DHT22;33529;49.242;8.670;2023-11-19T00:27:45;9.20;99.90
47765;DHT22;33529;49.242;8.670;2023-11-19T00:30:14;9.20;99.90
47765;DHT22;33529;49.242;8.670;2023-11-19T00:32:45;9.20;99.90
47765;DHT22;33529;49.242;8.670;2023-11-19T00:35:12;9.20;99.90
47765;DHT22;33529;49.242;8.670;2023-11-19T00:37:42;9.20;99.90
47765;DHT22;33529;49.242;8.670;2023-11-19T00:40:10;9.30;99.90
47765;DHT22;33529;49.242;8.670;2023-11-19T00:42:38;9.30;99.90
47765;DHT22;33529;49.242;8.670;2023-11-19T00:45:05;9.30;99.90
47765;DHT22;33529;49.242;8.670;2023-11-19T00:47:36;9.30;99.90
47765;DHT22;33529;49.242;8.670;2023-11-19T00:50:03;9.40;99.90
47765;DHT22;33529;49.242;8.670;2023-11-19T00:52:30;9.30;99.90
47765;DHT22;33529;49.242;8.670;2023-11-19T00:54:57;9.40;99.90
47765;DHT22;33529;49.242;8.670;2023-11-19T00:57:24;9.40;99.90
47765;DHT22;33529;49.242;8.670;2023-11-19T00:59:51;9.40;99.90
47765;DHT22;33529;49.242;8.670;2023-11-19T01:02:19;9.40;99.90
47765;DHT22;33529;49.242;8.670;2023-11-19T01:04:46;9.40;99.90
47765;DHT22;33529;49.242;8.670;2023-11-19T01:07:13;9.50;99.90
47765;DHT22;33529;49.242;8.670;2023-11-19T01:09:42;9.50;99.90
47765;DHT22;33529;49.242;8.670;2023-11-19T01:12:09;9.50;99.90
47765;DHT22;33529;49.242;8.670;2023-11-19T01:14:37;9.50;99.90
47765;DHT22;33529;49.242;8.670;2023-11-19T01:17:05;9.50;99.90
47765;DHT22;33529;49.242;8.670;2023-11-19T01:19:34;9.50;99.90
47765;DHT22;33529;49.242;8.670;2023-11-19T01:22:01;9.50;99.90
47765;DHT22;33529;49.242;8.670;2023-11-19T01:24:28;9.50;99.90
47765;DHT22;33529;49.242;8.670;2023-11-19T01:26:55;9.50;99.90
47765;DHT22;33529;49.242;8.670;2023-11-19T01:29:24;9.50;99.90
47765;DHT22;33529;49.242;8.670;2023-11-19T01:31:51;9.50;99.90
47765;DHT22;33529;49.242;8.670;2023-11-19T01:34:18;9.50;99.90
47765;DHT22;33529;49.242;8.670;2023-11-19T01:36:47;9.50;99.90
47765;DHT22;33529;49.242;8.670;2023-11-19T01:39:16;9.50;99.90
47765;DHT22;33529;49.242;8.670;2023-11-19T01:41:43;9.60;99.90
47765;DHT22;33529;49.242;8.670;2023-11-19T01:44:16;9.60;99.90
47765;DHT22;33529;49.242;8.670;2023-11-19T01:46:45;9.60;99.90
47765;DHT22;33529;49.242;8.670;2023-11-19T01:49:15;9.60;99.90
47765;DHT22;33529;49.242;8.670;2023-11-19T01:51:46;9.70;99.90
47765;DHT22;33529;49.242;8.670;2023-11-19T01:54:14;9.60;99.90
47765;DHT22;33529;49.242;8.670;2023-11-19T01:56:42;9.60;99.90
47765;DHT22;33529;49.242;8.670;2023-11-19T01:59:11;9.70;99.90
47765;DHT22;33529;49.242;8.670;2023-11-19T02:01:41;9.70;99.90
47765;DHT22;33529;49.242;8.670;2023-11-19T02:04:09;9.70;99.90
47765;DHT22;33529;49.242;8.670;2023-11-19T02:06:39;9.80;99.90
47765;DHT22;33529;49.242;8.670;2023-11-19T02:09:08;9.80;99.90
47765;DHT22;33529;49.242;8.670;2023-11-19T02:11:35;9.80;99.90
47765;DHT22;33529;49.242;8.670;2023-11-19T02:14:02;9.80;99.90
47765;DHT22;33529;49.242;8.670;2023-11-19T02:16:31;9.80;99.90
47765;DHT22;33529;49.242;8.670;2023-11-19T02:18:59;9.80;99.90
47765;DHT22;33529;49.242;8.670;2023-11-19T02:21:26;9.80;99.90
47765;DHT22;33529;49.242;8.670;2023-11-19T02:23:56;9.90;99.90
47765;DHT22;33529;49.242;8.670;2023-11-19T02:26:52;9.90;99.90
47765;DHT22;33529;49.242;8.670;2023-11-19T02:29:23;9.90;99.90
47765;DHT22;33529;49.242;8.670;2023-11-19T02:31:50;9.90;99.90
47765;DHT22;33529;49.242;8.670;2023-11-19T02:34:16;9.90;99.90
47765;DHT22;33529;49.242;8.670;2023-11-19T02:36:43;9.90;99.90
47765;DHT22;33529;49.242;8.670;2023-11-19T02:39:10;10.00;99.90
47765;DHT22;33529;49.242;8.670;2023-11-19T02:41:39;10.00;99.90
47765;DHT22;33529;49.242;8.670;2023-11-19T02:44:07;10.00;99.90
47765;DHT22;33529;49.242;8.670;2023-11-19T02:46:34;10.00;99.90
47765;DHT22;33529;49.242;8.670;2023-11-19T02:49:00;10.10;99.90
47765;DHT22;33529;49.242;8.670;2023-11-19T02:51:30;10.10;99.90
47765;DHT22;33529;49.242;8.670;2023-11-19T02:53:57;10.10;99.90
47765;DHT22;33529;49.242;8.670;2023-11-19T02:56:24;10.10;99.90
47765;DHT22;33529;49.242;8.670;2023-11-19T02:58:56;10.10;99.90
47765;DHT22;33529;49.242;8.670;2023-11-19T03:01:26;10.10;99.90
47765;DHT22;33529;49.242;8.670;2023-11-19T03:03:58;10.10;99.90
47765;DHT22;33529;49.242;8.670;2023-11-19T03:06:26;10.10;99.90
47765;DHT22;33529;49.242;8.670;2023-11-19T03:08:54;10.20;99.90
47765;DHT22;33529;49.242;8.670;2023-11-19T03:11:22;10.20;99.90
47765;DHT22;33529;49.242;8.670;2023-11-19T03:13:49;10.20;99.90
47765;DHT22;33529;49.242;8.670;2023-11-19T03:16:15;10.20;99.90
47765;DHT22;33529;49.242;8.670;2023-11-19T03:18:44;10.20;99.90
47765;DHT22;33529;49.242;8.670;2023-11-19T03:21:10;10.20;99.90
47765;DHT22;33529;49.242;8.670;2023-11-19T03:23:37;10.30;99.90
47765;DHT22;33529;49.242;8.670;2023-11-19T03:26:06;10.30;99.90
47765;DHT22;33529;49.242;8.670;2023-11-19T03:28:34;10.30;99.90
47765;DHT22;33529;49.242;8.670;2023-11-19T03:31:04;10.30;99.90
47765;DHT22;33529;49.242;8.670;2023-11-19T03:33:31;10.40;99.90
47765;DHT22;33529;49.242;8.670;2023-11-19T03:35:58;10.30;99.90
47765;DHT22;33529;49.242;8.670;2023-11-19T03:38:25;10.30;99.90
47765;DHT22;33529;49.242;8.670;2023-11-19T03:40:52;10.30;99.90
47765;DHT22;33529;49.242;8.670;2023-11-19T03:43:19;10.40;99.90
47765;DHT22;33529;49.242;8.670;2023-11-19T03:45:46;10.40;99.90
47765;DHT22;33529;49.242;8.670;2023-11-19T03:48:13;10.40;99.90
47765;DHT22;33529;49.242;8.670;2023-11-19T03:50:43;10.40;99.90
47765;DHT22;33529;49.242;8.670;2023-11-19T03:53:12;10.50;99.90
47765;DHT22;33529;49.242;8.670;2023-11-19T03:55:38;10.40;99.90
47765;DHT22;33529;49.242;8.670;2023-11-19T03:58:05;10.50;99.90
47765;DHT22;33529;49.242;8.670;2023-11-19T04:00:35;10.40;99.90
47765;DHT22;33529;49.242;8.670;2023-11-19T04:03:05;10.50;99.90
47765;DHT22;33529;49.242;8.670;2023-11-19T04:05:31;10.50;99.90
47765;DHT22;33529;49.242;8.670;2023-11-19T04:07:58;10.50;99.90
47765;DHT22;33529;49.242;8.670;2023-11-19T04:10:25;10.50;99.90
47765;DHT22;33529;49.242;8.670;2023-11-19T04:12:56;10.50;99.90
47765;DHT22;33529;49.242;8.670;2023-11-19T04:15:23;10.60;99.90
47765;DHT22;33529;49.242;8.670;2023-11-19T04:17:52;10.50;99.90
47765;DHT22;33529;49.242;8.670;2023-11-19T04:20:21;10.50;99.90
47765;DHT22;33529;49.242;8.670;2023-11-19T04:22:49;10.50;99.90
47765;DHT22;33529;49.242;8.670;2023-11-19T04:25:16;10.60;99.90
47765;DHT22;33529;49.242;8.670;2023-11-19T04:27:43;10.60;99.90
47765;DHT22;33529;49.242;8.670;2023-11-19T04:30:10;10.60;99.90
47765;DHT22;33529;49.242;8.670;2023-11-19T04:32:38;10.60;99.90
47765;DHT22;33529;49.242;8.670;2023-11-19T04:35:05;10.60;99.90
47765;DHT22;33529;49.242;8.670;2023-11-19T04:37:36;10.60;99.90
47765;DHT22;33529;49.242;8.670;2023-11-19T04:40:04;10.70;99.90
47765;DHT22;33529;49.242;8.670;2023-11-19T04:42:31;10.70;99.90
47765;DHT22;33529;49.242;8.670;2023-11-19T04:44:59;10.70;99.90
47765;DHT22;33529;49.242;8.670;2023-11-19T04:47:26;10.70;99.90
47765;DHT22;33529;49.242;8.670;2023-11-19T04:49:53;10.80;99.90
47765;DHT22;33529;49.242;8.670;2023-11-19T04:52:19;10.80;99.90
47765;DHT22;33529;49.242;8.670;2023-11-19T04:54:47;10.80;99.90
47765;DHT22;33529;49.242;8.670;2023-11-19T04:57:14;10.80;99.90
47765;DHT22;33529;49.242;8.670;2023-11-19T04:59:41;10.80;99.90
47765;DHT22;33529;49.242;8.670;2023-11-19T05:02:08;10.80;99.90
47765;DHT22;33529;49.242;8.670;2023-11-19T05:04:35;10.80;99.90
47765;DHT22;33529;49.242;8.670;2023-11-19T05:07:04;10.80;99.90
47765;DHT22;33529;49.242;8.670;2023-11-19T05:09:31;10.80;99.90
47765;DHT22;33529;49.242;8.670;2023-11-19T05:11:59;10.90;99.90
47765;DHT22;33529;49.242;8.670;2023-11-19T05:14:25;10.80;99.90
47765;DHT22;33529;49.242;8.670;2023-11-19T05:16:52;10.80;99.90
47765;DHT22;33529;49.242;8.670;2023-11-19T05:19:19;10.90;99.90
47765;DHT22;33529;49.242;8.670;2023-11-19T05:21:46;10.90;99.90
47765;DHT22;33529;49.242;8.670;2023-11-19T05:24:13;10.90;99.90
47765;DHT22;33529;49.242;8.670;2023-11-19T05:26:40;10.90;99.90
47765;DHT22;33529;49.242;8.670;2023-11-19T05:29:07;10.90;99.90
47765;DHT22;33529;49.242;8.670;2023-11-19T05:31:34;11.00;99.90
47765;DHT22;33529;49.242;8.670;2023-11-19T05:34:03;11.00;99.90
47765;DHT22;33529;49.242;8.670;2023-11-19T05:36:31;11.00;99.90
47765;DHT22;33529;49.242;8.670;2023-11-19T05:38:58;11.00;99.90
47765;DHT22;33529;49.242;8.670;2023-11-19T05:41:25;11.00;99.90
47765;DHT22;33529;49.242;8.670;2023-11-19T05:43:51;11.00;99.90
47765;DHT22;33529;49.242;8.670;2023-11-19T05:46:18;11.10;99.90
47765;DHT22;33529;49.242;8.670;2023-11-19T05:48:48;11.10;99.90
47765;DHT22;33529;49.242;8.670;2023-11-19T05:51:15;11.10;99.90
47765;DHT22;33529;49.242;8.670;2023-11-19T05:53:44;11.10;99.90
47765;DHT22;33529;49.242;8.670;2023-11-19T05:56:14;11.20;99.90
47765;DHT22;33529;49.242;8.670;2023-11-19T05:58:43;11.20;99.90
47765;DHT22;33529;49.242;8.670;2023-11-19T06:01:15;11.20;99.90
47765;DHT22;33529;49.242;8.670;2023-11-19T06:03:42;11.20;99.90
47765;DHT22;33529;49.242;8.670;2023-11-19T06:06:10;11.20;99.90
47765;DHT22;33529;49.242;8.670;2023-11-19T06:08:38;11.30;99.90
47765;DHT22;33529;49.242;8.670;2023-11-19T06:11:05;11.30;99.90
47765;DHT22;33529;49.242;8.670;2023-11-19T06:13:32;11.30;99.90
47765;DHT22;33529;49.242;8.670;2023-11-19T06:15:59;11.30;99.90
47765;DHT22;33529;49.242;8.670;2023-11-19T06:18:26;11.30;99.90
47765;DHT22;33529;49.242;8.670;2023-11-19T06:20:54;11.30;99.90
47765;DHT22;33529;49.242;8.670;2023-11-19T06:23:21;11.30;99.90
47765;DHT22;33529;49.242;8.670;2023-11-19T06:25:48;11.40;99.90
47765;DHT22;33529;49.242;8.670;2023-11-19T06:28:14;11.40;99.90
47765;DHT22;33529;49.242;8.670;2023-11-19T06:30:41;11.40;99.90
47765;DHT22;33529;49.242;8.670;2023-11-19T06:33:13;11.50;99.90
47765;DHT22;33529;49.242;8.670;2023-11-19T06:35:40;11.50;99.90
47765;DHT22;33529;49.242;8.670;2023-11-19T06:38:07;11.50;99.90
47765;DHT22;33529;49.242;8.670;2023-11-19T06:40:34;11.50;99.90
47765;DHT22;33529;49.242;8.670;2023-11-19T06:43:04;11.50;99.90
47765;DHT22;33529;49.242;8.670;2023-11-19T06:45:32;11.60;99.90
47765;DHT22;33529;49.242;8.670;2023-11-19T06:48:03;11.60;99.90
47765;DHT22;33529;49.242;8.670;2023-11-19T06:50:31;11.60;99.90
47765;DHT22;33529;49.242;8.670;2023-11-19T06:52:58;11.60;99.90
47765;DHT22;33529;49.242;8.670;2023-11-19T06:55:27;11.70;99.90
47765;DHT22;33529;49.242;8.670;2023-11-19T06:57:54;11.70;99.90
47765;DHT22;33529;49.242;8.670;2023-11-19T07:00:21;11.70;99.90
47765;DHT22;33529;49.242;8.670;2023-11-19T07:02:48;11.60;99.90
47765;DHT22;33529;49.242;8.670;2023-11-19T07:05:16;11.70;99.90
47765;DHT22;33529;49.242;8.670;2023-11-19T07:07:43;11.60;99.90
47765;DHT22;33529;49.242;8.670;2023-11-19T07:10:12;11.70;99.90
47765;DHT22;33529;49.242;8.670;2023-11-19T07:12:39;11.70;99.90
47765;DHT22;33529;49.242;8.670;2023-11-19T07:15:06;11.80;99.90
47765;DHT22;33529;49.242;8.670;2023-11-19T07:17:36;11.80;99.90
47765;DHT22;33529;49.242;8.670;2023-11-19T07:20:03;11.80;99.90
47765;DHT22;33529;49.242;8.670;2023-11-19T07:22:31;11.80;99.90
47765;DHT22;33529;49.242;8.670;2023-11-19T07:24:57;11.90;99.90
47765;DHT22;33529;49.242;8.670;2023-11-19T07:27:25;11.90;99.90
47765;DHT22;33529;49.242;8.670;2023-11-19T07:29:52;11.90;99.90
47765;DHT22;33529;49.242;8.670;2023-11-19T07:32:19;11.90;99.90
47765;DHT22;33529;49.242;8.670;2023-11-19T07:34:45;11.90;99.90
47765;DHT22;33529;49.242;8.670;2023-11-19T07:37:12;11.90;99.90
47765;DHT22;33529;49.242;8.670;2023-11-19T07:39:39;11.90;99.90
47765;DHT22;33529;49.242;8.670;2023-11-19T07:42:08;11.90;99.90
47765;DHT22;33529;49.242;8.670;2023-11-19T07:44:36;11.90;99.90
47765;DHT22;33529;49.242;8.670;2023-11-19T07:47:03;11.80;99.90
47765;DHT22;33529;49.242;8.670;2023-11-19T07:49:30;11.80;99.90
47765;DHT22;33529;49.242;8.670;2023-11-19T07:51:57;11.80;99.90
47765;DHT22;33529;49.242;8.670;2023-11-19T07:54:24;11.80;99.90
47765;DHT22;33529;49.242;8.670;2023-11-19T07:56:51;11.80;99.90
47765;DHT22;33529;49.242;8.670;2023-11-19T07:59:18;11.80;99.90
47765;DHT22;33529;49.242;8.670;2023-11-19T08:01:45;11.90;99.90
47765;DHT22;33529;49.242;8.670;2023-11-19T08:04:11;11.90;99.90
47765;DHT22;33529;49.242;8.670;2023-11-19T08:06:39;11.90;99.90
47765;DHT22;33529;49.242;8.670;2023-11-19T08:09:06;12.00;99.90
47765;DHT22;33529;49.242;8.670;2023-11-19T08:11:33;12.10;99.90
47765;DHT22;33529;49.242;8.670;2023-11-19T08:14:00;12.10;99.90
47765;DHT22;33529;49.242;8.670;2023-11-19T08:16:27;12.20;99.90
47765;DHT22;33529;49.242;8.670;2023-11-19T08:18:54;12.20;99.90
47765;DHT22;33529;49.242;8.670;2023-11-19T08:21:21;12.20;99.90
47765;DHT22;33529;49.242;8.670;2023-11-19T08:23:49;12.20;99.90
47765;DHT22;33529;49.242;8.670;2023-11-19T08:26:16;12.30;99.90
47765;DHT22;33529;49.242;8.670;2023-11-19T08:28:47;12.30;99.90
47765;DHT22;33529;49.242;8.670;2023-11-19T08:31:14;12.40;99.90
47765;DHT22;33529;49.242;8.670;2023-11-19T08:33:41;12.50;99.90
47765;DHT22;33529;49.242;8.670;2023-11-19T08:36:08;12.40;99.90
47765;DHT22;33529;49.242;8.670;2023-11-19T08:38:35;12.40;99.90
47765;DHT22;33529;49.242;8.670;2023-11-19T08:41:02;12.40;99.90
47765;DHT22;33529;49.242;8.670;2023-11-19T08:43:29;12.40;99.90
47765;DHT22;33529;49.242;8.670;2023-11-19T08:45:58;12.40;99.90
47765;DHT22;33529;49.242;8.670;2023-11-19T08:48:25;12.40;99.90
47765;DHT22;33529;49.242;8.670;2023-11-19T08:50:52;12.30;99.90
47765;DHT22;33529;49.242;8.670;2023-11-19T08:53:19;12.30;99.90
47765;DHT22;33529;49.242;8.670;2023-11-19T08:55:46;12.40;99.90
47765;DHT22;33529;49.242;8.670;2023-11-19T08:58:13;12.50;99.90
47765;DHT22;33529;49.242;8.670;2023-11-19T09:00:40;12.50;99.90
47765;DHT22;33529;49.242;8.670;2023-11-19T09:03:07;12.60;99.90
47765;DHT22;33529;49.242;8.670;2023-11-19T09:05:36;12.70;99.90
47765;DHT22;33529;49.242;8.670;2023-11-19T09:08:04;12.70;99.90
47765;DHT22;33529;49.242;8.670;2023-11-19T09:10:31;12.80;99.90
47765;DHT22;33529;49.242;8.670;2023-11-19T09:12:58;12.90;99.90
47765;DHT22;33529;49.242;8.670;2023-11-19T09:15:25;13.00;99.90
47765;DHT22;33529;49.242;8.670;2023-11-19T09:17:52;13.10;99.90
47765;DHT22;33529;49.242;8.670;2023-11-19T09:20:19;13.20;99.90
47765;DHT22;33529;49.242;8.670;2023-11-19T09:22:49;13.20;99.90
47765;DHT22;33529;49.242;8.670;2023-11-19T09:25:16;13.20;99.90
47765;DHT22;33529;49.242;8.670;2023-11-19T09:27:44;13.20;99.90
47765;DHT22;33529;49.242;8.670;2023-11-19T09:30:11;13.20;99.90
47765;DHT22;33529;49.242;8.670;2023-11-19T09:32:39;13.20;99.90
47765;DHT22;33529;49.242;8.670;2023-11-19T09:35:08;13.20;99.90
47765;DHT22;33529;49.242;8.670;2023-11-19T09:37:36;13.20;99.90
47765;DHT22;33529;49.242;8.670;2023-11-19T09:40:03;13.20;99.90
47765;DHT22;33529;49.242;8.670;2023-11-19T09:42:33;13.30;99.90
47765;DHT22;33529;49.242;8.670;2023-11-19T09:45:13;13.30;99.90
47765;DHT22;33529;49.242;8.670;2023-11-19T09:47:43;13.40;99.90
47765;DHT22;33529;49.242;8.670;2023-11-19T09:50:19;13.40;99.90
47765;DHT22;33529;49.242;8.670;2023-11-19T09:52:49;13.50;99.90
47765;DHT22;33529;49.242;8.670;2023-11-19T09:55:16;13.40;99.90
47765;DHT22;33529;49.242;8.670;2023-11-19T09:57:45;13.30;99.90
47765;DHT22;33529;49.242;8.670;2023-11-19T10:00:14;13.40;99.90
47765;DHT22;33529;49.242;8.670;2023-11-19T10:02:43;13.40;99.90
47765;DHT22;33529;49.242;8.670;2023-11-19T10:05:17;13.40;99.90
47765;DHT22;33529;49.242;8.670;2023-11-19T10:07:47;13.60;99.90
47765;DHT22;33529;49.242;8.670;2023-11-19T10:10:14;13.60;99.90
47765;DHT22;33529;49.242;8.670;2023-11-19T10:12:45;13.70;99.90
47765;DHT22;33529;49.242;8.670;2023-11-19T10:15:23;13.80;99.90
47765;DHT22;33529;49.242;8.670;2023-11-19T10:17:51;13.80;99.90
47765;DHT22;33529;49.242;8.670;2023-11-19T10:20:23;13.80;99.90
47765;DHT22;33529;49.242;8.670;2023-11-19T10:22:53;14.00;99.90
47765;DHT22;33529;49.242;8.670;2023-11-19T10:25:26;14.10;99.90
47765;DHT22;33529;49.242;8.670;2023-11-19T10:27:54;14.10;99.90
47765;DHT22;33529;49.242;8.670;2023-11-19T10:30:25;14.00;99.90
47765;DHT22;33529;49.242;8.670;2023-11-19T10:33:19;13.90;99.90
47765;DHT22;33529;49.242;8.670;2023-11-19T10:35:53;13.90;99.90
47765;DHT22;33529;49.242;8.670;2023-11-19T10:38:24;13.90;99.90
47765;DHT22;33529;49.242;8.670;2023-11-19T10:40:52;13.90;99.90
47765;DHT22;33529;49.242;8.670;2023-11-19T10:43:19;13.90;99.90
47765;DHT22;33529;49.242;8.670;2023-11-19T10:45:49;13.90;99.90
47765;DHT22;33529;49.242;8.670;2023-11-19T10:48:16;13.90;99.90
47765;DHT22;33529;49.242;8.670;2023-11-19T10:50:44;14.00;99.90
47765;DHT22;33529;49.242;8.670;2023-11-19T10:53:12;14.00;99.90
47765;DHT22;33529;49.242;8.670;2023-11-19T10:55:39;13.90;99.90
47765;DHT22;33529;49.242;8.670;2023-11-19T10:58:08;13.80;99.90
47765;DHT22;33529;49.242;8.670;2023-11-19T11:00:51;13.90;99.90
47765;DHT22;33529;49.242;8.670;2023-11-19T11:03:20;14.10;99.90
47765;DHT22;33529;49.242;8.670;2023-11-19T11:05:48;14.20;99.90
47765;DHT22;33529;49.242;8.670;2023-11-19T11:08:16;14.30;99.90
47765;DHT22;33529;49.242;8.670;2023-11-19T11:10:54;14.40;99.90
47765;DHT22;33529;49.242;8.670;2023-11-19T11:13:26;14.50;99.90
47765;DHT22;33529;49.242;8.670;2023-11-19T11:15:57;14.60;99.90
47765;DHT22;33529;49.242;8.670;2023-11-19T11:18:25;14.70;99.90
47765;DHT22;33529;49.242;8.670;2023-11-19T11:21:01;14.80;99.90
47765;DHT22;33529;49.242;8.670;2023-11-19T11:26:26;14.90;99.90
47765;DHT22;33529;49.242;8.670;2023-11-19T11:29:09;15.00;99.90
47765;DHT22;33529;49.242;8.670;2023-11-19T11:36:54;15.00;99.90
47765;DHT22;33529;49.242;8.670;2023-11-19T11:39:27;15.00;99.90
47765;DHT22;33529;49.242;8.670;2023-11-19T11:45:17;15.00;99.90
47765;DHT22;33529;49.242;8.670;2023-11-19T11:48:08;15.00;99.90
47765;DHT22;33529;49.242;8.670;2023-11-19T11:50:48;15.00;99.90
47765;DHT22;33529;49.242;8.670;2023-11-19T11:53:20;15.00;99.90
47765;DHT22;33529;49.242;8.670;2023-11-19T11:58:26;15.00;99.90
47765;DHT22;33529;49.242;8.670;2023-11-19T12:00:53;14.90;99.90
47765;DHT22;33529;49.242;8.670;2023-11-19T12:03:22;14.80;99.90
47765;DHT22;33529;49.242;8.670;2023-11-19T12:05:49;14.70;99.90
47765;DHT22;33529;49.242;8.670;2023-11-19T12:08:25;14.70;99.90
47765;DHT22;33529;49.242;8.670;2023-11-19T12:10:54;14.60;99.90
47765;DHT22;33529;49.242;8.670;2023-11-19T12:13:26;14.60;99.90
47765;DHT22;33529;49.242;8.670;2023-11-19T12:18:30;14.80;99.90
47765;DHT22;33529;49.242;8.670;2023-11-19T12:21:00;14.90;99.90
47765;DHT22;33529;49.242;8.670;2023-11-19T12:23:32;15.00;99.90
47765;DHT22;33529;49.242;8.670;2023-11-19T12:25:59;15.00;99.90
47765;DHT22;33529;49.242;8.670;2023-11-19T12:28:26;15.00;99.90
47765;DHT22;33529;49.242;8.670;2023-11-19T12:31:07;14.90;99.90
47765;DHT22;33529;49.242;8.670;2023-11-19T12:33:35;14.80;99.90
47765;DHT22;33529;49.242;8.670;2023-11-19T12:36:05;14.80;99.90
47765;DHT22;33529;49.242;8.670;2023-11-19T12:38:33;14.90;99.90
47765;DHT22;33529;49.242;8.670;2023-11-19T12:41:08;14.90;99.90
47765;DHT22;33529;49.242;8.670;2023-11-19T12:43:39;14.90;99.90
47765;DHT22;33529;49.242;8.670;2023-11-19T12:46:18;15.10;99.90
47765;DHT22;33529;49.242;8.670;2023-11-19T12:48:48;15.30;99.90
47765;DHT22;33529;49.242;8.670;2023-11-19T12:51:19;15.30;99.90
47765;DHT22;33529;49.242;8.670;2023-11-19T12:53:52;15.30;99.90
47765;DHT22;33529;49.242;8.670;2023-11-19T12:56:24;15.30;99.90
47765;DHT22;33529;49.242;8.670;2023-11-19T12:58:51;15.30;99.90
47765;DHT22;33529;49.242;8.670;2023-11-19T13:01:19;15.40;99.90
47765;DHT22;33529;49.242;8.670;2023-11-19T13:03:48;15.40;99.90
47765;DHT22;33529;49.242;8.670;2023-11-19T13:06:18;15.50;99.90
47765;DHT22;33529;49.242;8.670;2023-11-19T13:08:50;15.60;99.90
47765;DHT22;33529;49.242;8.670;2023-11-19T13:11:39;15.70;99.90
47765;DHT22;33529;49.242;8.670;2023-11-19T13:14:07;15.70;99.90
47765;DHT22;33529;49.242;8.670;2023-11-19T13:16:38;15.70;99.90
47765;DHT22;33529;49.242;8.670;2023-11-19T13:19:06;15.60;99.90
47765;DHT22;33529;49.242;8.670;2023-11-19T13:21:32;15.50;99.90
47765;DHT22;33529;49.242;8.670;2023-11-19T13:24:00;15.50;99.90
47765;DHT22;33529;49.242;8.670;2023-11-19T13:26:27;15.50;99.90
47765;DHT22;33529;49.242;8.670;2023-11-19T13:28:54;15.40;99.90
47765;DHT22;33529;49.242;8.670;2023-11-19T13:31:24;15.30;99.90
47765;DHT22;33529;49.242;8.670;2023-11-19T13:33:52;15.20;99.90
47765;DHT22;33529;49.242;8.670;2023-11-19T13:36:19;15.10;99.90
47765;DHT22;33529;49.242;8.670;2023-11-19T13:38:46;15.10;99.90
47765;DHT22;33529;49.242;8.670;2023-11-19T13:41:13;15.10;99.90
47765;DHT22;33529;49.242;8.670;2023-11-19T13:43:41;15.00;99.90
47765;DHT22;33529;49.242;8.670;2023-11-19T13:46:09;15.00;99.90
47765;DHT22;33529;49.242;8.670;2023-11-19T13:48:39;15.10;99.90
47765;DHT22;33529;49.242;8.670;2023-11-19T13:51:06;15.00;99.90
47765;DHT22;33529;49.242;8.670;2023-11-19T13:53:33;15.00;99.90
47765;DHT22;33529;49.242;8.670;2023-11-19T13:56:17;14.90;99.90
47765;DHT22;33529;49.242;8.670;2023-11-19T13:58:44;14.80;99.90
47765;DHT22;33529;49.242;8.670;2023-11-19T14:01:11;14.80;99.90
47765;DHT22;33529;49.242;8.670;2023-11-19T14:03:39;14.80;99.90
47765;DHT22;33529;49.242;8.670;2023-11-19T14:06:07;14.80;99.90
47765;DHT22;33529;49.242;8.670;2023-11-19T14:08:35;14.80;99.90
47765;DHT22;33529;49.242;8.670;2023-11-19T14:11:02;14.80;99.90
47765;DHT22;33529;49.242;8.670;2023-11-19T14:13:29;14.80;99.90
47765;DHT22;33529;49.242;8.670;2023-11-19T14:15:56;14.70;99.90
47765;DHT22;33529;49.242;8.670;2023-11-19T14:18:23;14.70;99.90
47765;DHT22;33529;49.242;8.670;2023-11-19T14:20:50;14.60;99.90
47765;DHT22;33529;49.242;8.670;2023-11-19T14:23:19;14.60;99.90
47765;DHT22;33529;49.242;8.670;2023-11-19T14:25:45;14.50;99.90
47765;DHT22;33529;49.242;8.670;2023-11-19T14:28:12;14.40;99.90
47765;DHT22;33529;49.242;8.670;2023-11-19T14:30:39;14.40;99.90
47765;DHT22;33529;49.242;8.670;2023-11-19T14:33:08;14.30;99.90
47765;DHT22;33529;49.242;8.670;2023-11-19T14:35:35;14.20;99.90
47765;DHT22;33529;49.242;8.670;2023-11-19T14:38:02;14.20;99.90
47765;DHT22;33529;49.242;8.670;2023-11-19T14:40:32;14.10;99.90
47765;DHT22;33529;49.242;8.670;2023-11-19T14:43:01;14.10;99.90
47765;DHT22;33529;49.242;8.670;2023-11-19T14:45:29;14.00;99.90
47765;DHT22;33529;49.242;8.670;2023-11-19T14:48:05;13.90;99.90
47765;DHT22;33529;49.242;8.670;2023-11-19T14:50:31;13.80;99.90
47765;DHT22;33529;49.242;8.670;2023-11-19T14:52:58;13.90;99.90
47765;DHT22;33529;49.242;8.670;2023-11-19T14:55:25;13.90;99.90
47765;DHT22;33529;49.242;8.670;2023-11-19T14:57:53;13.90;99.90
47765;DHT22;33529;49.242;8.670;2023-11-19T15:00:32;13.90;99.90
47765;DHT22;33529;49.242;8.670;2023-11-19T15:03:01;13.80;99.90
47765;DHT22;33529;49.242;8.670;2023-11-19T15:05:28;13.80;99.90
47765;DHT22;33529;49.242;8.670;2023-11-19T15:07:56;13.80;99.90
47765;DHT22;33529;49.242;8.670;2023-11-19T15:10:25;13.60;99.90
47765;DHT22;33529;49.242;8.670;2023-11-19T15:12:52;13.60;99.90
47765;DHT22;33529;49.242;8.670;2023-11-19T15:15:20;13.70;99.90
47765;DHT22;33529;49.242;8.670;2023-11-19T15:17:50;13.80;99.90
47765;DHT22;33529;49.242;8.670;2023-11-19T15:20:17;13.80;99.90
47765;DHT22;33529;49.242;8.670;2023-11-19T15:22:46;13.80;99.90
47765;DHT22;33529;49.242;8.670;2023-11-19T15:25:13;13.80;99.90
47765;DHT22;33529;49.242;8.670;2023-11-19T15:27:40;13.80;99.90
47765;DHT22;33529;49.242;8.670;2023-11-19T15:30:07;13.80;99.90
47765;DHT22;33529;49.242;8.670;2023-11-19T15:32:37;13.80;99.90
47765;DHT22;33529;49.242;8.670;2023-11-19T15:35:06;13.80;99.90
47765;DHT22;33529;49.242;8.670;2023-11-19T15:37:34;13.80;99.90
47765;DHT22;33529;49.242;8.670;2023-11-19T15:40:02;13.70;99.90
47765;DHT22;33529;49.242;8.670;2023-11-19T15:42:32;13.80;99.90
47765;DHT22;33529;49.242;8.670;2023-11-19T15:44:59;13.70;99.90
47765;DHT22;33529;49.242;8.670;2023-11-19T15:47:26;13.50;99.90
47765;DHT22;33529;49.242;8.670;2023-11-19T15:49:52;13.60;99.90
47765;DHT22;33529;49.242;8.670;2023-11-19T15:52:19;13.50;99.90
47765;DHT22;33529;49.242;8.670;2023-11-19T15:54:46;13.40;99.90
47765;DHT22;33529;49.242;8.670;2023-11-19T15:57:14;13.40;99.90